createdAt,value
2018-04-09T00:01:09.401Z,50.87
2018-04-09T00:03:37.692Z,54.07
2018-04-09T00:06:06.035Z,55.40
2018-04-09T00:08:34.360Z,56.30
2018-04-09T00:11:02.661Z,45.10
2018-04-09T00:13:31.044Z,48.43
2018-04-09T00:15:59.349Z,55.70
2018-04-09T00:18:27.805Z,51.07
2018-04-09T00:20:56.132Z,60.23
2018-04-09T00:23:24.414Z,48.57
2018-04-09T00:25:52.757Z,51.50
2018-04-09T00:28:21.036Z,48.50
2018-04-09T00:30:49.417Z,48.83
2018-04-09T00:33:17.700Z,45.30
2018-04-09T00:35:46.235Z,50.30
2018-04-09T00:38:14.569Z,48.03
2018-04-09T00:40:42.957Z,51.20
2018-04-09T00:43:11.381Z,51.33
2018-04-09T00:45:39.695Z,47.53
2018-04-09T00:48:07.978Z,53.37
2018-04-09T00:50:36.329Z,44.77
2018-04-09T00:53:04.702Z,44.23
2018-04-09T00:55:33.273Z,48.10
2018-04-09T00:58:01.573Z,46.20
2018-04-09T01:00:29.977Z,47.10
2018-04-09T01:02:58.259Z,51.13
2018-04-09T01:05:26.597Z,46.87
2018-04-09T01:07:54.920Z,51.73
2018-04-09T01:10:23.241Z,49.73
2018-04-09T01:12:51.557Z,48.13
2018-04-09T01:15:19.877Z,49.10
2018-04-09T01:17:48.289Z,50.27
2018-04-09T01:20:16.620Z,52.73
2018-04-09T01:22:44.972Z,47.60
2018-04-09T01:25:13.383Z,46.73
2018-04-09T01:27:41.749Z,45.97
2018-04-09T01:30:10.113Z,47.70
2018-04-09T01:32:38.570Z,49.40
2018-04-09T01:35:06.912Z,44.60
2018-04-09T01:37:35.195Z,49.50
2018-04-09T01:40:03.517Z,42.70
2018-04-09T01:42:31.942Z,47.33
2018-04-09T01:45:00.351Z,45.90
2018-04-09T01:47:28.849Z,40.93
2018-04-09T01:49:57.110Z,40.53
2018-04-09T01:52:25.436Z,42.20
2018-04-09T01:54:53.697Z,47.60
2018-04-09T01:57:22.180Z,44.50
2018-04-09T01:59:50.596Z,44.20
2018-04-09T02:02:18.955Z,44.37
2018-04-09T02:04:47.234Z,38.73
2018-04-09T02:07:15.585Z,42.17
2018-04-09T02:09:43.873Z,40.87
2018-04-09T02:12:12.351Z,38.93
2018-04-09T02:14:40.734Z,39.23
2018-04-09T02:17:09.081Z,43.13
2018-04-09T02:19:37.397Z,41.83
2018-04-09T02:22:05.760Z,40.83
2018-04-09T02:24:34.045Z,38.60
2018-04-09T02:27:02.515Z,44.67
2018-04-09T02:29:30.804Z,44.23
2018-04-09T02:31:59.157Z,41.43
2018-04-09T02:34:27.655Z,39.87
2018-04-09T02:37:02.769Z,38.23
2018-04-09T02:39:31.093Z,41.30
2018-04-09T02:41:59.462Z,42.10
2018-04-09T02:44:27.874Z,44.73
2018-04-09T02:46:56.238Z,38.70
2018-04-09T02:49:24.549Z,41.67
2018-04-09T02:51:52.865Z,38.53
2018-04-09T02:54:21.138Z,40.37
2018-04-09T02:56:49.609Z,42.50
2018-04-09T02:59:17.937Z,40.97
2018-04-09T03:01:46.345Z,39.27
2018-04-09T03:04:14.731Z,40.40
2018-04-09T03:06:43.091Z,37.67
2018-04-09T03:09:11.604Z,47.10
2018-04-09T03:11:39.942Z,38.30
2018-04-09T03:14:08.245Z,44.63
2018-04-09T03:16:36.574Z,50.27
2018-04-09T03:19:04.938Z,46.93
2018-04-09T03:21:33.381Z,40.70
2018-04-09T03:24:01.855Z,41.20
2018-04-09T03:26:30.202Z,37.17
2018-04-09T03:28:58.545Z,37.03
2018-04-09T03:31:26.868Z,38.67
2018-04-09T03:33:55.381Z,43.83
2018-04-09T03:36:23.896Z,43.23
2018-04-09T03:38:52.185Z,40.53
2018-04-09T03:41:20.605Z,44.33
2018-04-09T03:43:49.020Z,40.73
2018-04-09T03:46:17.330Z,41.23
2018-04-09T03:48:45.646Z,36.90
2018-04-09T03:51:14.013Z,40.40
2018-04-09T03:53:42.351Z,42.97
2018-04-09T03:56:10.685Z,42.10
2018-04-09T03:58:38.985Z,42.50
2018-04-09T04:04:03.029Z,41.53
2018-04-09T04:06:32.459Z,44.67
2018-04-09T04:09:00.812Z,39.90
2018-04-09T04:11:29.657Z,39.10
2018-04-09T04:13:57.995Z,38.23
2018-04-09T04:16:38.079Z,44.80
2018-04-09T04:21:19.989Z,47.53
2018-04-09T04:23:48.735Z,40.57
2018-04-09T04:26:18.311Z,42.83
2018-04-09T04:28:47.175Z,44.57
2018-04-09T04:31:15.594Z,49.40
2018-04-09T04:33:43.976Z,44.87
2018-04-09T04:36:12.818Z,44.93
2018-04-09T04:38:41.144Z,46.40
2018-04-09T04:41:09.637Z,43.70
2018-04-09T04:43:37.976Z,45.30
2018-04-09T04:46:06.679Z,42.53
2018-04-09T04:48:35.133Z,44.13
2018-04-09T04:51:03.804Z,38.17
2018-04-09T04:53:32.318Z,45.83
2018-04-09T04:56:00.949Z,43.67
2018-04-09T04:58:29.238Z,46.43
2018-04-09T05:00:58.105Z,45.30
2018-04-09T05:03:26.975Z,46.60
2018-04-09T05:05:55.356Z,42.37
2018-04-09T05:08:23.789Z,48.13
2018-04-09T05:10:52.589Z,48.77
2018-04-09T05:13:21.259Z,45.47
2018-04-09T05:15:49.936Z,39.77
2018-04-09T05:18:18.560Z,44.20
2018-04-09T05:20:47.514Z,46.07
2018-04-09T05:23:16.380Z,47.07
2018-04-09T05:25:44.869Z,44.67
2018-04-09T05:28:13.433Z,44.23
2018-04-09T05:30:42.297Z,48.93
2018-04-09T05:33:10.684Z,47.70
2018-04-09T05:35:39.392Z,48.50
2018-04-09T05:38:08.102Z,49.70
2018-04-09T05:40:36.817Z,51.67
2018-04-09T05:43:05.205Z,42.23
2018-04-09T05:45:33.999Z,38.40
2018-04-09T05:48:02.900Z,40.10
2018-04-09T05:50:31.375Z,42.83
2018-04-09T05:52:59.849Z,39.00
2018-04-09T05:55:28.177Z,44.33
2018-04-09T05:57:56.769Z,44.43
2018-04-09T06:00:25.219Z,44.07
2018-04-09T06:02:57.639Z,54.27
2018-04-09T06:05:26.961Z,46.20
2018-04-09T06:07:55.514Z,48.43
2018-04-09T06:10:24.717Z,46.80
2018-04-09T06:12:53.744Z,48.60
2018-04-09T06:15:22.668Z,44.93
2018-04-09T06:17:51.625Z,48.27
2018-04-09T06:20:20.391Z,41.53
2018-04-09T06:22:49.106Z,43.80
2018-04-09T06:25:17.664Z,44.40
2018-04-09T06:27:45.999Z,42.87
2018-04-09T06:30:14.548Z,45.53
2018-04-09T06:32:43.735Z,47.43
2018-04-09T06:35:16.238Z,45.27
2018-04-09T06:37:44.977Z,45.33
2018-04-09T06:40:13.461Z,54.23
2018-04-09T06:42:46.228Z,43.10
2018-04-09T06:45:15.908Z,38.93
2018-04-09T06:47:47.619Z,48.77
2018-04-09T06:50:17.099Z,41.77
2018-04-09T06:52:47.052Z,48.43
2018-04-09T06:55:18.262Z,44.40
2018-04-09T06:57:47.662Z,42.40
2018-04-09T07:00:17.165Z,54.17
2018-04-09T07:02:48.739Z,39.00
2018-04-09T07:05:17.344Z,39.87
2018-04-09T07:07:45.900Z,44.57
2018-04-09T07:10:16.353Z,43.60
2018-04-09T07:12:45.632Z,43.37
2018-04-09T07:15:15.862Z,41.83
2018-04-09T07:17:44.972Z,39.27
2018-04-09T07:20:14.247Z,43.50
2018-04-09T07:22:43.468Z,41.07
2018-04-09T07:25:12.445Z,43.17
2018-04-09T07:27:41.114Z,43.87
2018-04-09T07:30:11.003Z,50.87
2018-04-09T07:32:40.768Z,44.67
2018-04-09T07:35:09.520Z,39.13
2018-04-09T07:37:37.868Z,37.57
2018-04-09T07:40:06.392Z,36.17
2018-04-09T07:42:35.050Z,49.13
2018-04-09T07:45:03.691Z,40.03
2018-04-09T07:47:32.492Z,40.77
2018-04-09T07:50:01.094Z,44.20
2018-04-09T07:52:29.412Z,50.57
2018-04-09T07:54:58.154Z,34.47
2018-04-09T07:57:26.925Z,40.00
2018-04-09T07:59:55.571Z,37.90
2018-04-09T08:02:24.052Z,36.50
2018-04-09T08:04:52.351Z,32.87
2018-04-09T08:07:21.179Z,34.47
2018-04-09T08:09:49.488Z,33.90
2018-04-09T08:12:18.476Z,36.43
2018-04-09T08:14:46.832Z,32.40
2018-04-09T08:17:15.591Z,39.07
2018-04-09T08:19:44.165Z,38.83
2018-04-09T08:22:12.581Z,29.67
2018-04-09T08:24:40.992Z,35.47
2018-04-09T08:27:09.841Z,29.87
2018-04-09T08:29:38.562Z,30.73
2018-04-09T08:32:07.189Z,30.47
2018-04-09T08:34:35.639Z,25.70
2018-04-09T08:37:04.032Z,24.87
2018-04-09T08:39:33.056Z,24.03
2018-04-09T08:42:01.816Z,21.23
2018-04-09T08:44:30.587Z,22.27
2018-04-09T08:46:59.100Z,27.23
2018-04-09T08:49:27.383Z,25.43
2018-04-09T08:51:55.725Z,27.10
2018-04-09T08:54:24.147Z,22.03
2018-04-09T08:56:52.879Z,24.43
2018-04-09T08:59:21.565Z,22.53
2018-04-09T09:01:50.542Z,16.07
2018-04-09T09:04:19.276Z,19.43
2018-04-09T09:06:48.004Z,17.93
2018-04-09T09:09:16.664Z,30.27
2018-04-09T09:11:45.500Z,25.20
2018-04-09T09:14:14.083Z,21.00
2018-04-09T09:16:42.529Z,18.97
2018-04-09T09:19:11.054Z,24.30
2018-04-09T09:21:39.821Z,17.30
2018-04-09T09:24:15.209Z,22.20
2018-04-09T09:26:44.236Z,20.00
2018-04-09T09:29:12.843Z,17.30
2018-04-09T09:31:41.599Z,16.27
2018-04-09T09:34:10.117Z,13.27
2018-04-09T09:36:38.527Z,12.10
2018-04-09T09:39:06.848Z,10.70
2018-04-09T09:41:35.508Z,11.93
2018-04-09T09:44:04.279Z,12.00
2018-04-09T09:46:33.068Z,11.33
2018-04-09T09:49:01.499Z,21.53
2018-04-09T09:51:29.886Z,13.10
2018-04-09T09:53:58.274Z,15.57
2018-04-09T09:56:26.853Z,14.73
2018-04-09T09:58:55.723Z,14.00
2018-04-09T10:01:27.299Z,13.30
2018-04-09T10:03:55.921Z,22.20
2018-04-09T10:06:24.704Z,16.20
2018-04-09T10:08:53.365Z,15.73
2018-04-09T10:11:22.065Z,14.43
2018-04-09T10:13:50.974Z,17.40
2018-04-09T10:16:19.799Z,13.60
2018-04-09T10:18:48.695Z,14.83
2018-04-09T10:21:17.086Z,16.13
2018-04-09T10:23:45.848Z,17.60
2018-04-09T10:26:14.777Z,13.43
2018-04-09T10:28:43.688Z,26.77
2018-04-09T10:31:12.104Z,13.73
2018-04-09T10:33:40.484Z,17.33
2018-04-09T10:36:08.873Z,13.23
2018-04-09T10:38:37.374Z,11.40
2018-04-09T10:41:05.696Z,12.90
2018-04-09T10:43:34.566Z,9.80
2018-04-09T10:46:03.203Z,13.43
2018-04-09T10:48:31.971Z,10.23
2018-04-09T10:51:00.739Z,20.53
2018-04-09T10:53:29.486Z,19.33
2018-04-09T10:55:58.112Z,15.07
2018-04-09T10:58:26.449Z,14.87
2018-04-09T11:00:55.235Z,16.50
2018-04-09T11:03:24.123Z,11.93
2018-04-09T11:05:52.761Z,10.30
2018-04-09T11:08:21.650Z,11.33
2018-04-09T11:10:50.268Z,10.93
2018-04-09T11:13:19.220Z,9.43
2018-04-09T11:15:47.681Z,10.30
2018-04-09T11:18:17.130Z,10.10
2018-04-09T11:20:45.613Z,10.97
2018-04-09T11:23:14.072Z,11.23
2018-04-09T11:25:42.925Z,8.57
2018-04-09T11:28:11.505Z,9.60
2018-04-09T11:30:40.087Z,9.57
2018-04-09T11:33:08.440Z,12.67
2018-04-09T11:35:36.964Z,13.67
2018-04-09T11:38:05.513Z,8.43
2018-04-09T11:40:34.064Z,11.77
2018-04-09T11:43:02.455Z,8.30
2018-04-09T11:45:31.063Z,8.23
2018-04-09T11:47:59.775Z,8.67
2018-04-09T11:50:28.370Z,9.80
2018-04-09T11:52:57.438Z,16.17
2018-04-09T11:55:25.750Z,12.07
2018-04-09T12:00:21.472Z,10.47
2018-04-09T12:02:52.976Z,9.33
2018-04-09T12:05:21.926Z,16.43
2018-04-09T12:07:50.815Z,10.80
2018-04-09T12:10:19.435Z,18.20
2018-04-09T12:12:47.879Z,9.70
2018-04-09T12:15:16.442Z,15.00
2018-04-09T12:17:44.949Z,13.90
2018-04-09T12:20:13.818Z,11.13
2018-04-09T12:22:42.921Z,11.30
2018-04-09T12:25:11.806Z,11.97
2018-04-09T12:27:40.129Z,15.73
2018-04-09T12:30:08.714Z,18.63
2018-04-09T12:32:37.237Z,17.27
2018-04-09T12:35:05.896Z,12.23
2018-04-09T12:37:34.343Z,9.50
2018-04-09T12:40:02.770Z,11.03
2018-04-09T12:42:31.363Z,12.97
2018-04-09T12:45:00.157Z,10.30
2018-04-09T12:47:28.714Z,12.43
2018-04-09T12:49:57.393Z,8.53
2018-04-09T12:52:26.107Z,10.07
2018-04-09T12:54:54.497Z,12.53
2018-04-09T12:57:22.991Z,13.77
2018-04-09T12:59:51.521Z,9.00
2018-04-09T13:02:20.187Z,10.70
2018-04-09T13:04:48.728Z,9.07
2018-04-09T13:07:17.278Z,10.20
2018-04-09T13:09:45.804Z,13.07
2018-04-09T13:12:14.547Z,8.90
2018-04-09T13:14:42.939Z,10.87
2018-04-09T13:17:11.389Z,10.73
2018-04-09T13:19:39.721Z,7.90
2018-04-09T13:22:08.154Z,8.30
2018-04-09T13:24:37.533Z,8.77
2018-04-09T13:27:08.608Z,8.07
2018-04-09T13:29:37.032Z,9.90
2018-04-09T13:32:05.410Z,7.07
2018-04-09T13:34:33.906Z,8.50
2018-04-09T13:37:02.361Z,6.87
2018-04-09T13:39:30.898Z,6.80
2018-04-09T13:41:59.289Z,7.13
2018-04-09T13:44:27.754Z,9.97
2018-04-09T13:46:56.214Z,8.40
2018-04-09T13:49:26.893Z,11.23
2018-04-09T13:51:55.326Z,8.30
2018-04-09T13:54:23.822Z,8.07
2018-04-09T13:56:52.207Z,7.60
2018-04-09T13:59:20.509Z,15.20
2018-04-09T14:01:49.182Z,9.30
2018-04-09T14:04:17.476Z,7.70
2018-04-09T14:06:45.861Z,9.70
2018-04-09T14:09:14.420Z,8.60
2018-04-09T14:11:42.818Z,11.43
2018-04-09T14:14:11.111Z,9.90
2018-04-09T14:16:39.662Z,12.67
2018-04-09T14:19:08.318Z,13.77
2018-04-09T14:21:36.782Z,12.87
2018-04-09T14:24:05.267Z,15.17
2018-04-09T14:26:33.974Z,11.57
2018-04-09T14:29:02.475Z,12.60
2018-04-09T14:31:30.869Z,15.20
2018-04-09T14:33:59.467Z,18.47
2018-04-09T14:36:27.977Z,15.83
2018-04-09T14:38:56.913Z,13.23
2018-04-09T14:41:25.577Z,14.47
2018-04-09T14:43:54.054Z,13.87
2018-04-09T14:46:22.798Z,15.53
2018-04-09T14:48:51.757Z,14.93
2018-04-09T14:51:20.083Z,12.37
2018-04-09T14:53:48.540Z,16.87
2018-04-09T14:56:17.226Z,14.83
2018-04-09T14:58:45.818Z,14.07
2018-04-09T15:01:14.387Z,12.60
2018-04-09T15:03:43.150Z,12.00
2018-04-09T15:06:11.719Z,10.90
2018-04-09T15:08:40.398Z,12.43
2018-04-09T15:11:09.009Z,17.80
2018-04-09T15:13:37.456Z,15.77
2018-04-09T15:16:06.221Z,10.37
2018-04-09T15:18:35.011Z,13.40
2018-04-09T15:21:03.730Z,12.60
2018-04-09T15:23:32.326Z,16.20
2018-04-09T15:26:00.838Z,12.03
2018-04-09T15:28:29.383Z,17.77
2018-04-09T15:30:57.862Z,16.43
2018-04-09T15:33:26.420Z,15.50
2018-04-09T15:35:55.263Z,18.27
2018-04-09T15:38:23.784Z,16.10
2018-04-09T15:40:52.286Z,17.77
2018-04-09T15:43:21.345Z,14.20
2018-04-09T15:45:50.194Z,13.67
2018-04-09T15:48:18.578Z,15.50
2018-04-09T15:50:47.014Z,17.33
2018-04-09T15:53:15.541Z,17.80
2018-04-09T15:55:44.047Z,13.00
2018-04-09T15:58:12.549Z,15.93
2018-04-09T16:00:41.342Z,21.40
2018-04-09T16:03:09.870Z,17.53
2018-04-09T16:05:40.016Z,16.43
2018-04-09T16:08:08.510Z,9.40
2018-04-09T16:10:37.729Z,14.10
2018-04-09T16:13:06.224Z,13.23
2018-04-09T16:15:35.243Z,10.53
2018-04-09T16:18:06.670Z,13.30
2018-04-09T16:20:35.408Z,11.80
2018-04-09T16:23:03.916Z,19.13
2018-04-09T16:25:32.425Z,18.90
2018-04-09T16:28:00.909Z,20.83
2018-04-09T16:30:29.437Z,12.60
2018-04-09T16:32:58.825Z,12.17
2018-04-09T16:35:27.594Z,21.47
2018-04-09T16:37:55.940Z,16.20
2018-04-09T16:40:24.550Z,18.67
2018-04-09T16:42:52.910Z,19.60
2018-04-09T16:45:21.311Z,13.90
2018-04-09T16:47:49.882Z,15.43
2018-04-09T16:50:18.843Z,17.50
2018-04-09T16:52:47.202Z,16.73
2018-04-09T16:55:15.874Z,19.03
2018-04-09T16:57:44.936Z,15.83
2018-04-09T17:00:14.034Z,15.43
2018-04-09T17:02:42.717Z,17.50
2018-04-09T17:05:11.062Z,12.17
2018-04-09T17:07:39.778Z,18.60
2018-04-09T17:10:08.321Z,20.20
2018-04-09T17:12:37.175Z,14.53
2018-04-09T17:15:05.669Z,18.43
2018-04-09T17:17:34.534Z,14.23
2018-04-09T17:20:02.835Z,15.63
2018-04-09T17:22:31.794Z,16.80
2018-04-09T17:25:00.131Z,12.37
2018-04-09T17:27:28.910Z,18.60
2018-04-09T17:29:57.743Z,23.97
2018-04-09T17:32:26.516Z,13.10
2018-04-09T17:34:55.386Z,14.53
2018-04-09T17:37:24.058Z,19.60
2018-04-09T17:39:52.957Z,30.00
2018-04-09T17:42:21.657Z,11.80
2018-04-09T17:44:50.402Z,13.23
2018-04-09T17:47:18.962Z,14.40
2018-04-09T17:49:47.429Z,12.47
2018-04-09T17:52:15.910Z,13.70
2018-04-09T17:54:44.388Z,21.20
2018-04-09T17:57:12.982Z,19.80
2018-04-09T17:59:41.601Z,16.83
2018-04-09T18:02:10.415Z,16.17
2018-04-09T18:04:39.150Z,20.17
2018-04-09T18:07:07.526Z,20.20
2018-04-09T18:09:36.313Z,15.13
2018-04-09T18:12:05.014Z,14.10
2018-04-09T18:14:33.367Z,12.63
2018-04-09T18:17:02.490Z,10.33
2018-04-09T18:19:31.084Z,13.13
2018-04-09T18:21:59.778Z,20.47
2018-04-09T18:24:35.094Z,15.20
2018-04-09T18:27:03.737Z,14.10
2018-04-09T18:29:32.863Z,16.50
2018-04-09T18:32:01.817Z,14.50
2018-04-09T18:34:30.565Z,16.77
2018-04-09T18:36:59.438Z,22.67
2018-04-09T18:39:27.909Z,14.30
2018-04-09T18:41:57.069Z,15.40
2018-04-09T18:44:25.443Z,23.97
2018-04-09T18:46:53.916Z,17.70
2018-04-09T18:49:22.575Z,18.50
2018-04-09T18:51:51.377Z,16.60
2018-04-09T18:54:20.174Z,15.67
2018-04-09T18:56:48.882Z,14.13
2018-04-09T18:59:17.257Z,16.07
2018-04-09T19:01:45.895Z,22.40
2018-04-09T19:04:14.365Z,16.33
2018-04-09T19:06:43.055Z,22.00
2018-04-09T19:09:11.549Z,14.20
2018-04-09T19:11:40.326Z,18.80
2018-04-09T19:15:11.974Z,11.87
2018-04-09T19:17:40.378Z,15.57
2018-04-09T19:20:09.075Z,15.30
2018-04-09T19:22:38.029Z,13.60
2018-04-09T19:25:06.880Z,18.97
2018-04-09T19:27:36.276Z,13.77
2018-04-09T19:30:05.473Z,15.30
2018-04-09T19:32:34.595Z,19.70
2018-04-09T19:35:07.301Z,17.47
2018-04-09T19:37:42.035Z,15.70
2018-04-09T19:40:15.456Z,14.83
2018-04-09T19:42:44.034Z,15.80
2018-04-09T19:45:12.551Z,17.17
2018-04-09T19:47:43.521Z,20.23
2018-04-09T19:50:14.412Z,19.50
2018-04-09T19:52:47.122Z,18.10
2018-04-09T19:55:21.584Z,19.30
2018-04-09T19:57:51.881Z,17.00
2018-04-09T20:00:25.624Z,21.13
2018-04-09T20:02:55.858Z,18.70
2018-04-09T20:05:26.174Z,21.43
2018-04-09T20:07:56.337Z,19.20
2018-04-09T20:10:25.754Z,21.83
2018-04-09T20:12:55.876Z,19.80
2018-04-09T20:15:26.351Z,29.03
2018-04-09T20:17:57.555Z,20.83
2018-04-09T20:20:29.710Z,17.00
2018-04-09T20:22:58.062Z,14.77
2018-04-09T20:25:27.584Z,22.27
2018-04-09T20:28:00.501Z,17.50
2018-04-09T20:30:29.761Z,25.53
2018-04-09T20:32:58.067Z,16.50
2018-04-09T20:35:29.847Z,31.37
2018-04-09T20:38:01.082Z,22.50
2018-04-09T20:40:30.104Z,24.87
2018-04-09T20:43:01.158Z,21.70
2018-04-09T20:45:31.143Z,28.97
2018-04-09T20:48:01.764Z,22.60
2018-04-09T20:50:31.510Z,20.40
2018-04-09T20:52:59.825Z,20.03
2018-04-09T20:55:31.718Z,18.90
2018-04-09T20:58:01.531Z,25.77
2018-04-09T21:00:32.975Z,24.57
2018-04-09T21:03:01.894Z,21.57
2018-04-09T21:05:33.379Z,28.30
2018-04-09T21:08:02.732Z,20.00
2018-04-09T21:10:33.521Z,22.63
2018-04-09T21:13:04.126Z,18.73
2018-04-09T21:15:34.388Z,22.03
2018-04-09T21:18:04.594Z,20.10
2018-04-09T21:20:35.418Z,18.30
2018-04-09T21:23:05.023Z,17.70
2018-04-09T21:25:33.851Z,32.97
2018-04-09T21:28:03.966Z,21.87
2018-04-09T21:30:34.822Z,22.23
2018-04-09T21:33:04.256Z,23.90
2018-04-09T21:35:33.237Z,23.63
2018-04-09T21:38:03.363Z,20.30
2018-04-09T21:40:34.107Z,22.13
2018-04-09T21:43:02.445Z,22.00
2018-04-09T21:45:32.834Z,21.00
2018-04-09T21:48:02.902Z,21.10
2018-04-09T21:50:31.967Z,23.43
2018-04-09T21:53:01.387Z,21.50
2018-04-09T21:55:30.742Z,22.17
2018-04-09T21:58:00.133Z,18.83
2018-04-09T22:00:29.714Z,18.40
2018-04-09T22:02:59.158Z,18.90
2018-04-09T22:05:29.869Z,20.40
2018-04-09T22:07:58.998Z,21.63
2018-04-09T22:10:27.447Z,22.93
2018-04-09T22:12:58.270Z,28.30
2018-04-09T22:15:28.213Z,22.00
2018-04-09T22:17:57.714Z,24.00
2018-04-09T22:20:26.590Z,24.13
2018-04-09T22:22:55.449Z,29.07
2018-04-09T22:25:25.352Z,23.10
2018-04-09T22:27:54.063Z,26.00
2018-04-09T22:30:24.545Z,23.73
2018-04-09T22:32:54.867Z,21.50
2018-04-09T22:35:24.573Z,23.57
2018-04-09T22:37:54.299Z,29.90
2018-04-09T22:40:23.380Z,25.00
2018-04-09T22:42:52.747Z,28.50
2018-04-09T22:45:21.868Z,25.37
2018-04-09T22:47:50.763Z,22.97
2018-04-09T22:50:19.635Z,22.83
2018-04-09T22:52:48.516Z,23.77
2018-04-09T22:55:17.095Z,23.57
2018-04-09T22:57:46.868Z,24.93
2018-04-09T23:00:16.298Z,32.97
2018-04-09T23:02:45.332Z,23.37
2018-04-09T23:05:14.306Z,25.27
2018-04-09T23:07:45.798Z,28.37
2018-04-09T23:10:15.221Z,24.43
2018-04-09T23:12:45.061Z,26.97
2018-04-09T23:15:14.772Z,28.50
2018-04-09T23:17:47.018Z,26.50
2018-04-09T23:20:16.171Z,26.20
2018-04-09T23:22:49.631Z,28.10
2018-04-09T23:25:20.035Z,28.33
2018-04-09T23:27:50.026Z,28.70
2018-04-09T23:30:20.395Z,30.47
2018-04-09T23:32:50.045Z,31.80
2018-04-09T23:35:19.000Z,32.43
2018-04-09T23:37:47.994Z,28.67
2018-04-09T23:40:17.183Z,30.17
2018-04-09T23:42:46.036Z,31.77
2018-04-09T23:45:15.583Z,30.63
2018-04-09T23:47:44.538Z,31.57
2018-04-09T23:50:12.893Z,34.67
2018-04-09T23:52:41.974Z,33.00
2018-04-09T23:55:10.401Z,32.77
2018-04-09T23:57:38.937Z,43.40
